Time;durP1;ratioP1;P1;durP2;ratioP2;P2;SDS_P1;SDS_P2;PMS_P1;PMS_P2;Temp;Humidity;BMP_temperature;BMP_pressure;BME280_temperature;BME280_humidity;BME280_pressure;Samples;Min_cycle;Max_cycle;Signal;HPM_P1;HPM_P2
2022/04/14 00:01:57;;;;;;;;;;;14.10;99.90;;;;;;5070597;28;20298;-77
2022/04/14 00:04:24;;;;;;;;;;;14.10;99.90;;;;;;5070092;28;20019;-77
2022/04/14 00:06:51;;;;;;;;;;;14.00;99.90;;;;;;5065606;28;19924;-77
2022/04/14 00:09:18;;;;;;;;;;;13.90;99.90;;;;;;5067511;28;19925;-77
2022/04/14 00:11:47;;;;;;;;;;;13.90;99.90;;;;;;5069863;28;20379;-77
2022/04/14 00:14:16;;;;;;;;;;;13.80;99.90;;;;;;5068918;28;19964;-77
2022/04/14 00:16:43;;;;;;;;;;;13.80;99.90;;;;;;5069544;28;19924;-77
2022/04/14 00:19:11;;;;;;;;;;;13.70;99.90;;;;;;5061347;28;19929;-77
2022/04/14 00:21:38;;;;;;;;;;;13.70;99.90;;;;;;5068371;28;19925;-77
2022/04/14 00:24:05;;;;;;;;;;;13.70;99.90;;;;;;5065396;28;19931;-77
2022/04/14 00:26:32;;;;;;;;;;;13.70;99.90;;;;;;5068346;28;20298;-77
2022/04/14 00:28:58;;;;;;;;;;;13.80;99.90;;;;;;5066832;28;19930;-77
2022/04/14 00:31:25;;;;;;;;;;;13.70;99.90;;;;;;5063933;28;19931;-77
2022/04/14 00:33:51;;;;;;;;;;;13.70;99.90;;;;;;5061389;28;20449;-77
2022/04/14 00:36:18;;;;;;;;;;;13.70;99.90;;;;;;5062413;28;19924;-77
2022/04/14 00:38:45;;;;;;;;;;;13.70;99.90;;;;;;5056678;28;19931;-77
2022/04/14 00:41:11;;;;;;;;;;;13.70;99.90;;;;;;5072058;28;19924;-77
2022/04/14 00:43:39;;;;;;;;;;;13.60;99.90;;;;;;5071798;28;19925;-77
2022/04/14 00:46:08;;;;;;;;;;;13.60;99.90;;;;;;5068606;28;19924;-76
2022/04/14 00:48:37;;;;;;;;;;;13.70;99.90;;;;;;5066777;28;19935;-76
2022/04/14 00:51:06;;;;;;;;;;;13.70;99.90;;;;;;5071832;28;20275;-77
2022/04/14 00:53:32;;;;;;;;;;;13.70;99.90;;;;;;5068555;28;19967;-77
2022/04/14 00:55:59;;;;;;;;;;;13.70;99.90;;;;;;5054407;28;20035;-77
2022/04/14 00:58:26;;;;;;;;;;;13.80;99.90;;;;;;5057182;28;19931;-77
2022/04/14 01:00:59;;;;;;;;;;;13.80;99.90;;;;;;5061377;28;19935;-77
2022/04/14 01:03:28;;;;;;;;;;;13.80;99.90;;;;;;5068134;28;20019;-77
2022/04/14 01:05:55;;;;;;;;;;;13.70;99.90;;;;;;5069016;28;19931;-78
2022/04/14 01:08:24;;;;;;;;;;;13.60;99.90;;;;;;5068746;28;19931;-76
2022/04/14 01:10:51;;;;;;;;;;;13.50;99.90;;;;;;5068950;28;20019;-76
2022/04/14 01:13:18;;;;;;;;;;;13.50;99.90;;;;;;5066036;28;19929;-76
2022/04/14 01:15:45;;;;;;;;;;;13.50;99.90;;;;;;5068665;28;19924;-76
2022/04/14 01:18:12;;;;;;;;;;;13.50;99.90;;;;;;5068494;28;19932;-76
2022/04/14 01:20:41;;;;;;;;;;;13.50;99.90;;;;;;5068808;28;19928;-76
2022/04/14 01:23:08;;;;;;;;;;;13.50;99.90;;;;;;5068199;28;19925;-76
2022/04/14 01:25:35;;;;;;;;;;;13.40;99.90;;;;;;5068573;28;20320;-76
2022/04/14 01:28:02;;;;;;;;;;;13.40;99.90;;;;;;5065192;28;19924;-76
2022/04/14 01:30:30;;;;;;;;;;;13.40;99.90;;;;;;5069055;28;20348;-76
2022/04/14 01:32:57;;;;;;;;;;;13.40;99.90;;;;;;5065385;28;19933;-76
2022/04/14 01:35:27;;;;;;;;;;;13.40;99.90;;;;;;5051872;28;19932;-76
2022/04/14 01:37:53;;;;;;;;;;;13.40;99.90;;;;;;5048821;28;20470;-76
2022/04/14 01:40:20;;;;;;;;;;;13.30;99.90;;;;;;5048591;28;19929;-76
2022/04/14 01:42:47;;;;;;;;;;;13.30;99.90;;;;;;5054519;28;19932;-76
2022/04/14 01:45:13;;;;;;;;;;;13.20;99.90;;;;;;5068781;28;19924;-77
2022/04/14 01:47:41;;;;;;;;;;;13.20;99.90;;;;;;5067007;28;19947;-76
2022/04/14 01:50:09;;;;;;;;;;;13.20;99.90;;;;;;5067908;28;20226;-76
2022/04/14 01:52:36;;;;;;;;;;;13.10;99.90;;;;;;5062874;28;19928;-76
2022/04/14 01:55:03;;;;;;;;;;;13.10;99.90;;;;;;5063354;28;19932;-76
2022/04/14 01:57:30;;;;;;;;;;;13.10;99.90;;;;;;5064590;28;19929;-76
2022/04/14 01:59:58;;;;;;;;;;;13.00;99.90;;;;;;5060675;28;20331;-75
2022/04/14 02:02:28;;;;;;;;;;;13.00;99.90;;;;;;5061574;28;19925;-76
2022/04/14 02:04:54;;;;;;;;;;;13.00;99.90;;;;;;5056938;28;20427;-76
2022/04/14 02:07:21;;;;;;;;;;;13.00;99.90;;;;;;5067084;28;19924;-76
2022/04/14 02:09:48;;;;;;;;;;;12.90;99.90;;;;;;5065015;28;20248;-76
2022/04/14 02:12:14;;;;;;;;;;;12.90;99.90;;;;;;5068553;28;20375;-76
2022/04/14 02:14:41;;;;;;;;;;;12.90;99.90;;;;;;5066399;28;19924;-76
2022/04/14 02:17:08;;;;;;;;;;;12.80;99.90;;;;;;5071183;28;19935;-76
2022/04/14 02:19:35;;;;;;;;;;;12.70;99.90;;;;;;5071359;28;19924;-76
2022/04/14 02:22:04;;;;;;;;;;;12.70;99.90;;;;;;5072577;28;19935;-76
2022/04/14 02:24:31;;;;;;;;;;;12.70;99.90;;;;;;5066399;28;19973;-76
2022/04/14 02:26:58;;;;;;;;;;;12.60;99.90;;;;;;5065661;28;19931;-76
2022/04/14 02:29:25;;;;;;;;;;;12.70;99.90;;;;;;5065667;28;20154;-76
2022/04/14 02:31:55;;;;;;;;;;;12.60;99.90;;;;;;5072455;28;19924;-77
2022/04/14 02:34:22;;;;;;;;;;;12.60;99.90;;;;;;5067724;28;19974;-76
2022/04/14 02:36:48;;;;;;;;;;;12.60;99.90;;;;;;5071566;28;19946;-76
2022/04/14 02:39:18;;;;;;;;;;;12.50;99.90;;;;;;5069419;28;19935;-76
2022/04/14 02:41:45;;;;;;;;;;;12.50;99.90;;;;;;5071972;28;20294;-77
2022/04/14 02:44:12;;;;;;;;;;;12.40;99.90;;;;;;5062252;28;20371;-77
2022/04/14 02:46:38;;;;;;;;;;;12.30;99.90;;;;;;5069609;28;19924;-76
2022/04/14 02:49:05;;;;;;;;;;;12.20;99.90;;;;;;5061351;28;19939;-77
2022/04/14 02:51:32;;;;;;;;;;;12.30;99.90;;;;;;5051813;28;20280;-77
2022/04/14 02:54:05;;;;;;;;;;;12.10;99.90;;;;;;5061583;28;20310;-77
2022/04/14 02:56:34;;;;;;;;;;;12.20;99.90;;;;;;5065676;28;19935;-77
2022/04/14 02:59:03;;;;;;;;;;;12.20;99.90;;;;;;5102552;28;20382;-76
2022/04/14 03:01:30;;;;;;;;;;;12.20;99.90;;;;;;5071188;28;20015;-76
2022/04/14 03:04:00;;;;;;;;;;;12.20;99.90;;;;;;5067242;28;20020;-76
2022/04/14 03:06:26;;;;;;;;;;;12.30;99.90;;;;;;5068489;28;20265;-76
2022/04/14 03:08:53;;;;;;;;;;;12.30;99.90;;;;;;5070439;28;19931;-77
2022/04/14 03:11:19;;;;;;;;;;;12.30;99.90;;;;;;5070747;28;19924;-77
2022/04/14 03:13:46;;;;;;;;;;;12.40;99.90;;;;;;5067167;28;20416;-77
2022/04/14 03:16:13;;;;;;;;;;;12.50;99.90;;;;;;5069505;28;19929;-76
2022/04/14 03:18:40;;;;;;;;;;;12.60;99.90;;;;;;5067022;28;20353;-77
2022/04/14 03:21:07;;;;;;;;;;;12.60;99.90;;;;;;5067297;28;19959;-76
2022/04/14 03:23:33;;;;;;;;;;;12.70;99.90;;;;;;5070159;28;20207;-77
2022/04/14 03:26:02;;;;;;;;;;;12.60;99.90;;;;;;5069387;28;20367;-77
2022/04/14 03:28:29;;;;;;;;;;;12.70;99.90;;;;;;5068593;28;20374;-76
2022/04/14 03:30:57;;;;;;;;;;;12.60;99.90;;;;;;5068197;28;20039;-76
2022/04/14 03:33:24;;;;;;;;;;;12.60;99.90;;;;;;5093328;28;19924;-76
2022/04/14 03:35:50;;;;;;;;;;;12.60;99.90;;;;;;5069785;28;19928;-77
2022/04/14 03:38:17;;;;;;;;;;;12.60;99.90;;;;;;5067719;28;19933;-77
2022/04/14 03:41:04;;;;;;;;;;;12.50;99.90;;;;;;5063589;28;19925;-77
2022/04/14 03:43:34;;;;;;;;;;;12.60;99.90;;;;;;5070654;28;20391;-77
2022/04/14 03:46:02;;;;;;;;;;;12.60;99.90;;;;;;5068297;28;19924;-77
2022/04/14 03:48:29;;;;;;;;;;;12.60;99.90;;;;;;5070760;28;19929;-77
2022/04/14 03:50:55;;;;;;;;;;;12.60;99.90;;;;;;5054103;28;19931;-77
2022/04/14 03:53:24;;;;;;;;;;;12.60;99.90;;;;;;5050571;28;19925;-77
2022/04/14 03:55:51;;;;;;;;;;;12.60;99.90;;;;;;5064360;28;20485;-77
2022/04/14 03:58:20;;;;;;;;;;;12.50;99.90;;;;;;5058564;28;19936;-76
2022/04/14 04:00:47;;;;;;;;;;;12.50;99.90;;;;;;5070305;28;20023;-76
2022/04/14 04:03:14;;;;;;;;;;;12.40;99.90;;;;;;5068055;28;19958;-77
2022/04/14 04:05:41;;;;;;;;;;;12.40;99.90;;;;;;5064514;28;20040;-77
2022/04/14 04:08:07;;;;;;;;;;;12.30;99.90;;;;;;5069674;28;19928;-76
2022/04/14 04:10:34;;;;;;;;;;;12.30;99.90;;;;;;5069786;28;20251;-76
2022/04/14 04:13:01;;;;;;;;;;;12.30;99.90;;;;;;5067536;28;19924;-76
2022/04/14 04:15:28;;;;;;;;;;;12.20;99.90;;;;;;5097919;28;19928;-77
2022/04/14 04:17:57;;;;;;;;;;;12.20;99.90;;;;;;5068149;28;19974;-76
2022/04/14 04:20:25;;;;;;;;;;;12.10;99.90;;;;;;5070590;28;19924;-76
2022/04/14 04:22:51;;;;;;;;;;;12.10;99.90;;;;;;5069443;28;19931;-76
2022/04/14 04:25:18;;;;;;;;;;;12.10;99.90;;;;;;5069883;28;20409;-76
2022/04/14 04:27:45;;;;;;;;;;;12.00;99.90;;;;;;5067737;28;20322;-76
2022/04/14 04:30:12;;;;;;;;;;;12.00;99.90;;;;;;5067980;28;19925;-76
2022/04/14 04:32:39;;;;;;;;;;;11.90;99.90;;;;;;5069390;28;20560;-76
2022/04/14 04:35:07;;;;;;;;;;;11.90;99.90;;;;;;5069235;28;19931;-76
2022/04/14 04:37:37;;;;;;;;;;;11.90;99.90;;;;;;5060973;28;19924;-76
2022/04/14 04:40:04;;;;;;;;;;;11.90;99.90;;;;;;5071976;28;19925;-76
2022/04/14 04:42:31;;;;;;;;;;;11.80;99.90;;;;;;5067733;28;19924;-76
2022/04/14 04:44:57;;;;;;;;;;;11.90;99.90;;;;;;5070456;28;19928;-76
2022/04/14 04:47:24;;;;;;;;;;;11.90;99.90;;;;;;5057452;28;20434;-76
2022/04/14 04:49:57;;;;;;;;;;;11.90;99.90;;;;;;5069307;28;20144;-76
2022/04/14 04:52:24;;;;;;;;;;;11.90;99.90;;;;;;5067132;28;19932;-77
2022/04/14 04:54:51;;;;;;;;;;;12.00;99.90;;;;;;5067930;28;19939;-75
2022/04/14 04:57:17;;;;;;;;;;;12.00;99.90;;;;;;5059250;28;19960;-76
2022/04/14 04:59:44;;;;;;;;;;;12.00;99.90;;;;;;5063574;28;19925;-76
2022/04/14 05:02:12;;;;;;;;;;;11.90;99.90;;;;;;5070192;28;19931;-76
2022/04/14 05:04:38;;;;;;;;;;;11.90;99.90;;;;;;5069461;28;19924;-77
2022/04/14 05:07:05;;;;;;;;;;;12.00;99.90;;;;;;5069289;28;19925;-76
2022/04/14 05:09:32;;;;;;;;;;;12.00;99.90;;;;;;5066444;28;19932;-76
2022/04/14 05:11:58;;;;;;;;;;;11.90;99.90;;;;;;5068665;28;19958;-76
2022/04/14 05:14:25;;;;;;;;;;;12.10;99.90;;;;;;5064813;28;20248;-76
2022/04/14 05:16:52;;;;;;;;;;;12.20;99.90;;;;;;5071693;28;19924;-76
2022/04/14 05:19:20;;;;;;;;;;;12.30;99.90;;;;;;5063684;28;20662;-76
2022/04/14 05:21:48;;;;;;;;;;;12.40;99.90;;;;;;5074093;28;19929;-76
2022/04/14 05:24:15;;;;;;;;;;;12.40;99.90;;;;;;5070108;28;19931;-76
2022/04/14 05:26:42;;;;;;;;;;;12.40;99.90;;;;;;5068598;28;20007;-76
2022/04/14 05:29:09;;;;;;;;;;;12.50;99.90;;;;;;5061393;28;20403;-76
2022/04/14 05:31:36;;;;;;;;;;;12.60;99.90;;;;;;5065437;28;19932;-76
2022/04/14 05:34:04;;;;;;;;;;;12.70;99.90;;;;;;5066134;28;19924;-76
2022/04/14 05:36:31;;;;;;;;;;;12.70;99.90;;;;;;5068155;28;19924;-76
2022/04/14 05:38:57;;;;;;;;;;;12.80;99.90;;;;;;5068301;28;20026;-76
2022/04/14 05:41:24;;;;;;;;;;;12.80;99.90;;;;;;5103984;28;19931;-76
2022/04/14 05:43:51;;;;;;;;;;;12.90;99.90;;;;;;5065011;28;20004;-76
2022/04/14 05:46:17;;;;;;;;;;;13.00;99.90;;;;;;5066951;28;19932;-76
2022/04/14 05:48:44;;;;;;;;;;;13.10;99.90;;;;;;5069724;28;19932;-76
2022/04/14 05:51:11;;;;;;;;;;;13.30;99.90;;;;;;5065801;28;20345;-76
2022/04/14 05:53:37;;;;;;;;;;;13.50;99.90;;;;;;5058093;28;19928;-76
2022/04/14 05:56:04;;;;;;;;;;;13.70;99.90;;;;;;5063206;28;19924;-76
2022/04/14 05:58:31;;;;;;;;;;;14.00;99.90;;;;;;5066343;28;20379;-74
2022/04/14 06:00:58;;;;;;;;;;;14.30;99.90;;;;;;5063083;28;19929;-75
2022/04/14 06:03:26;;;;;;;;;;;14.60;99.90;;;;;;5066763;28;19932;-76
2022/04/14 06:05:52;;;;;;;;;;;14.90;99.90;;;;;;5067881;28;20405;-75
2022/04/14 06:08:19;;;;;;;;;;;15.20;99.90;;;;;;5067822;28;20038;-76
2022/04/14 06:10:45;;;;;;;;;;;15.40;99.90;;;;;;5068486;28;19932;-76
2022/04/14 06:13:15;;;;;;;;;;;15.70;99.90;;;;;;5066947;28;19930;-75
2022/04/14 06:15:42;;;;;;;;;;;15.90;99.90;;;;;;5064125;28;19959;-75
2022/04/14 06:18:09;;;;;;;;;;;16.00;99.90;;;;;;5065763;28;19929;-76
2022/04/14 06:20:36;;;;;;;;;;;16.00;99.90;;;;;;5070587;28;19963;-76
2022/04/14 06:23:02;;;;;;;;;;;16.00;99.90;;;;;;5068589;28;19924;-76
2022/04/14 06:25:30;;;;;;;;;;;16.00;99.90;;;;;;5068866;28;20625;-76
2022/04/14 06:27:58;;;;;;;;;;;16.00;99.90;;;;;;5062550;28;20383;-75
2022/04/14 06:30:25;;;;;;;;;;;16.00;99.90;;;;;;5057711;28;19931;-76
2022/04/14 06:32:54;;;;;;;;;;;16.00;99.90;;;;;;5061262;28;19925;-76
2022/04/14 06:35:21;;;;;;;;;;;16.10;99.90;;;;;;5066471;28;19971;-76
2022/04/14 06:37:48;;;;;;;;;;;16.20;99.90;;;;;;5068661;28;20455;-76
2022/04/14 06:40:15;;;;;;;;;;;16.00;99.90;;;;;;5066582;28;19924;-76
2022/04/14 06:42:59;;;;;;;;;;;15.90;99.90;;;;;;5062147;28;20656;-76
2022/04/14 06:45:26;;;;;;;;;;;15.80;99.90;;;;;;5065863;28;19943;-76
2022/04/14 06:47:53;;;;;;;;;;;15.70;99.90;;;;;;5063633;28;20031;-76
2022/04/14 06:50:20;;;;;;;;;;;15.70;99.90;;;;;;5058991;28;20007;-76
2022/04/14 06:52:47;;;;;;;;;;;15.70;99.90;;;;;;5065307;28;19924;-75
2022/04/14 06:55:16;;;;;;;;;;;15.70;99.90;;;;;;5065549;28;19987;-76
2022/04/14 06:57:43;;;;;;;;;;;15.70;99.90;;;;;;5062136;28;20399;-75
2022/04/14 07:00:10;;;;;;;;;;;15.60;99.90;;;;;;5060843;28;19932;-75
2022/04/14 07:02:46;;;;;;;;;;;15.40;99.90;;;;;;5068677;28;19925;-75
2022/04/14 07:05:13;;;;;;;;;;;15.40;99.90;;;;;;5069743;28;19925;-76
2022/04/14 07:07:39;;;;;;;;;;;15.30;99.90;;;;;;5070434;28;20371;-75
2022/04/14 07:10:06;;;;;;;;;;;15.20;99.90;;;;;;5067918;28;19931;-76
2022/04/14 07:12:33;;;;;;;;;;;15.20;99.90;;;;;;5073660;28;20003;-76
2022/04/14 07:15:00;;;;;;;;;;;15.20;99.90;;;;;;5072659;28;20007;-76
2022/04/14 07:17:27;;;;;;;;;;;15.20;99.90;;;;;;5072149;28;19924;-76
2022/04/14 07:19:54;;;;;;;;;;;15.20;99.90;;;;;;5104558;27;19924;-76
2022/04/14 07:22:20;;;;;;;;;;;15.20;99.90;;;;;;5069764;28;19931;-76
2022/04/14 07:24:48;;;;;;;;;;;15.20;99.90;;;;;;5068673;28;20387;-76
2022/04/14 07:27:17;;;;;;;;;;;15.20;99.90;;;;;;5073166;28;19931;-77
2022/04/14 07:29:46;;;;;;;;;;;15.20;99.90;;;;;;5067473;28;19928;-75
2022/04/14 07:32:16;;;;;;;;;;;15.20;99.90;;;;;;5069927;28;19948;-76
2022/04/14 07:34:43;;;;;;;;;;;15.20;99.90;;;;;;5070856;28;19933;-75
2022/04/14 07:37:10;;;;;;;;;;;15.20;99.90;;;;;;5071421;28;19925;-76
2022/04/14 07:39:37;;;;;;;;;;;15.20;99.90;;;;;;5067470;28;19924;-75
2022/04/14 07:42:09;;;;;;;;;;;15.20;99.90;;;;;;5069983;28;20031;-76
2022/04/14 07:44:36;;;;;;;;;;;15.30;99.90;;;;;;5065533;28;19924;-75
2022/04/14 07:47:03;;;;;;;;;;;15.40;99.90;;;;;;5069913;28;20390;-75
2022/04/14 07:49:32;;;;;;;;;;;15.50;99.90;;;;;;5067396;28;19979;-75
2022/04/14 07:52:02;;;;;;;;;;;15.60;99.90;;;;;;5068632;28;19928;-75
2022/04/14 07:54:34;;;;;;;;;;;15.70;99.90;;;;;;5068309;28;19931;-76
2022/04/14 07:57:01;;;;;;;;;;;15.80;99.90;;;;;;5069625;28;19924;-76
2022/04/14 07:59:27;;;;;;;;;;;15.90;99.90;;;;;;5069413;28;19924;-76
2022/04/14 08:01:54;;;;;;;;;;;16.00;99.90;;;;;;5059561;28;19925;-75
2022/04/14 08:04:23;;;;;;;;;;;16.10;99.90;;;;;;5067538;28;19970;-75
2022/04/14 08:06:50;;;;;;;;;;;16.20;99.90;;;;;;5070024;28;20011;-75
2022/04/14 08:09:37;;;;;;;;;;;16.40;99.90;;;;;;5062007;28;19931;-75
2022/04/14 08:12:03;;;;;;;;;;;16.50;99.90;;;;;;5069398;28;19965;-75
2022/04/14 08:14:33;;;;;;;;;;;16.50;99.90;;;;;;5070716;28;20367;-75
2022/04/14 08:17:04;;;;;;;;;;;16.50;99.90;;;;;;5069278;28;19947;-75
2022/04/14 08:19:31;;;;;;;;;;;16.60;99.90;;;;;;5065641;28;20340;-75
2022/04/14 08:21:58;;;;;;;;;;;16.80;99.90;;;;;;5070289;28;19939;-75
2022/04/14 08:24:34;;;;;;;;;;;17.00;99.90;;;;;;5061250;28;19990;-74
2022/04/14 08:27:00;;;;;;;;;;;17.00;99.90;;;;;;5070058;28;19939;-75
2022/04/14 08:29:30;;;;;;;;;;;17.20;99.90;;;;;;5066627;28;19931;-75
2022/04/14 08:31:57;;;;;;;;;;;17.40;99.90;;;;;;5071149;28;19928;-75
2022/04/14 08:34:24;;;;;;;;;;;17.70;99.90;;;;;;5072422;28;19928;-75
2022/04/14 08:36:54;;;;;;;;;;;18.10;99.90;;;;;;5068120;28;20272;-75
2022/04/14 08:39:25;;;;;;;;;;;18.40;99.90;;;;;;5065689;28;19932;-75
2022/04/14 08:41:54;;;;;;;;;;;18.80;99.90;;;;;;5067618;28;19924;-75
2022/04/14 08:44:21;;;;;;;;;;;19.10;99.90;;;;;;5066433;28;19924;-75
2022/04/14 08:46:49;;;;;;;;;;;19.30;99.90;;;;;;5070357;28;20763;-76
2022/04/14 08:49:16;;;;;;;;;;;19.30;99.90;;;;;;5071367;28;19925;-75
2022/04/14 08:51:43;;;;;;;;;;;19.40;99.90;;;;;;5069827;28;20362;-76
2022/04/14 08:54:13;;;;;;;;;;;19.50;99.90;;;;;;5066558;28;19962;-77
2022/04/14 08:56:41;;;;;;;;;;;19.80;99.90;;;;;;5062365;28;20538;-77
2022/04/14 08:59:08;;;;;;;;;;;20.00;99.90;;;;;;5068345;28;19924;-76
2022/04/14 09:01:35;;;;;;;;;;;20.40;99.90;;;;;;5062765;28;19931;-77
2022/04/14 09:04:03;;;;;;;;;;;20.80;99.90;;;;;;5065528;28;19931;-76
2022/04/14 09:06:32;;;;;;;;;;;20.90;99.90;;;;;;5059814;28;19924;-76
2022/04/14 09:08:59;;;;;;;;;;;20.80;99.90;;;;;;5067952;28;19942;-76
2022/04/14 09:11:29;;;;;;;;;;;20.60;99.90;;;;;;5058652;28;19931;-76
2022/04/14 09:13:56;;;;;;;;;;;20.30;99.90;;;;;;5063388;28;19924;-76
2022/04/14 09:16:23;;;;;;;;;;;20.30;99.90;;;;;;5059671;28;21143;-76
2022/04/14 09:18:49;;;;;;;;;;;20.50;99.90;;;;;;5070658;28;20386;-76
2022/04/14 09:21:19;;;;;;;;;;;20.60;99.90;;;;;;5071230;28;19924;-76
2022/04/14 09:23:46;;;;;;;;;;;;;;;;;;5066471;28;19944;-76
2022/04/14 09:26:14;;;;;;;;;;;21.40;99.90;;;;;;5064622;28;19924;-76
2022/04/14 09:28:59;;;;;;;;;;;22.00;99.90;;;;;;5071074;28;19978;-76
2022/04/14 09:31:27;;;;;;;;;;;22.30;99.90;;;;;;5069261;28;19930;-76
2022/04/14 09:33:53;;;;;;;;;;;22.10;99.90;;;;;;5070978;28;19925;-75
2022/04/14 09:36:21;;;;;;;;;;;22.40;99.90;;;;;;5064233;28;19924;-75
2022/04/14 09:38:48;;;;;;;;;;;;;;;;;;5067930;28;20359;-76
2022/04/14 09:41:15;;;;;;;;;;;;;;;;;;5069702;28;19931;-75
2022/04/14 09:43:52;;;;;;;;;;;24.30;99.90;;;;;;5070755;28;20461;-75
2022/04/14 09:46:19;;;;;;;;;;;24.60;99.90;;;;;;5069186;28;20460;-76
2022/04/14 09:49:01;;;;;;;;;;;24.40;99.90;;;;;;5068763;28;20297;-75
2022/04/14 09:51:28;;;;;;;;;;;24.00;99.90;;;;;;5068329;28;19978;-75
2022/04/14 09:54:14;;;;;;;;;;;23.50;99.90;;;;;;5066284;28;20379;-75
2022/04/14 09:56:47;;;;;;;;;;;22.90;99.90;;;;;;5056477;28;19925;-76
2022/04/14 09:59:17;;;;;;;;;;;22.80;99.90;;;;;;5049310;28;19925;-76
2022/04/14 10:01:44;;;;;;;;;;;22.50;99.90;;;;;;5058832;28;20449;-76
2022/04/14 10:04:29;;;;;;;;;;;22.10;99.90;;;;;;5068980;28;20065;-75
2022/04/14 10:07:03;;;;;;;;;;;22.00;99.90;;;;;;5058483;28;20375;-75
2022/04/14 10:09:30;;;;;;;;;;;22.00;99.90;;;;;;5048836;28;19931;-76
2022/04/14 10:11:56;;;;;;;;;;;22.00;99.90;;;;;;5059706;28;20310;-76
2022/04/14 10:14:24;;;;;;;;;;;21.60;99.90;;;;;;5068204;28;19924;-76
2022/04/14 10:16:51;;;;;;;;;;;21.10;99.90;;;;;;5068024;28;19931;-76
2022/04/14 10:19:18;;;;;;;;;;;20.80;99.90;;;;;;5068785;28;19943;-74
2022/04/14 10:21:48;;;;;;;;;;;20.40;99.90;;;;;;5056417;28;20171;-75
2022/04/14 10:24:15;;;;;;;;;;;20.20;99.90;;;;;;5049393;28;19925;-75
2022/04/14 10:26:43;;;;;;;;;;;20.10;99.90;;;;;;5046939;28;19925;-75
2022/04/14 10:29:13;;;;;;;;;;;20.00;99.90;;;;;;5066898;28;19924;-75
2022/04/14 10:31:40;;;;;;;;;;;20.00;99.90;;;;;;5066586;28;19924;-75
2022/04/14 10:34:07;;;;;;;;;;;19.80;99.90;;;;;;5063126;28;19925;-75
2022/04/14 10:36:42;;;;;;;;;;;19.50;99.90;;;;;;5050539;28;19931;-74
2022/04/14 10:39:13;;;;;;;;;;;19.40;99.90;;;;;;5051674;28;19935;-75
2022/04/14 10:41:44;;;;;;;;;;;19.20;99.90;;;;;;5057541;28;20023;-75
2022/04/14 10:44:13;;;;;;;;;;;19.20;99.90;;;;;;5071169;28;19928;-75
2022/04/14 10:46:41;;;;;;;;;;;19.20;99.90;;;;;;5069239;28;19924;-76
2022/04/14 10:49:15;;;;;;;;;;;19.40;99.90;;;;;;5072594;28;19980;-75
2022/04/14 10:51:43;;;;;;;;;;;19.60;99.90;;;;;;5069935;28;19925;-75
2022/04/14 10:54:11;;;;;;;;;;;19.40;99.90;;;;;;5068428;28;19944;-76
2022/04/14 10:56:37;;;;;;;;;;;19.40;99.90;;;;;;5071254;28;19939;-75
2022/04/14 10:59:04;;;;;;;;;;;19.30;99.90;;;;;;5072251;28;19969;-75
2022/04/14 11:01:53;;;;;;;;;;;19.60;99.90;;;;;;5066035;28;19933;-75
2022/04/14 11:04:26;;;;;;;;;;;20.20;99.90;;;;;;5062693;28;19924;-76
2022/04/14 11:06:58;;;;;;;;;;;20.80;99.90;;;;;;5070742;28;19944;-76
2022/04/14 11:09:48;;;;;;;;;;;21.20;99.90;;;;;;5070430;28;20442;-76
2022/04/14 11:12:19;;;;;;;;;;;21.50;99.90;;;;;;5071925;28;20294;-75
2022/04/14 11:14:47;;;;;;;;;;;21.80;99.90;;;;;;5069640;28;20303;-76
2022/04/14 11:17:42;;;;;;;;;;;22.00;99.90;;;;;;5065352;28;19950;-76
2022/04/14 11:20:12;;;;;;;;;;;22.20;99.90;;;;;;5066297;28;20569;-76
2022/04/14 11:22:58;;;;;;;;;;;22.10;99.90;;;;;;5070562;28;20442;-75
2022/04/14 11:25:51;;;;;;;;;;;21.70;99.90;;;;;;5071809;28;19925;-76
2022/04/14 11:28:28;;;;;;;;;;;21.90;99.90;;;;;;5069302;28;20031;-76
2022/04/14 11:30:58;;;;;;;;;;;22.70;99.90;;;;;;5065753;28;19947;-76
2022/04/14 11:33:28;;;;;;;;;;;23.20;99.90;;;;;;5069790;28;20291;-75
2022/04/14 11:36:07;;;;;;;;;;;23.50;99.90;;;;;;5070601;28;19978;-76
2022/04/14 11:38:52;;;;;;;;;;;24.00;99.90;;;;;;5067707;28;20375;-76
2022/04/14 11:41:30;;;;;;;;;;;24.90;99.90;;;;;;5062644;28;20033;-76
2022/04/14 11:44:04;;;;;;;;;;;26.10;99.90;;;;;;5051321;28;20033;-76
2022/04/14 11:46:31;;;;;;;;;;;26.80;99.90;;;;;;5054628;28;19925;-76
2022/04/14 11:49:01;;;;;;;;;;;26.40;99.90;;;;;;5049639;28;19925;-76
2022/04/14 11:51:27;;;;;;;;;;;26.50;99.90;;;;;;5069360;28;19935;-76
2022/04/14 11:53:56;;;;;;;;;;;26.60;99.90;;;;;;5091065;28;19931;-77
2022/04/14 11:56:39;;;;;;;;;;;26.30;99.90;;;;;;5080539;28;19930;-77
2022/04/14 11:59:08;;;;;;;;;;;26.40;99.90;;;;;;5070660;28;19928;-77
2022/04/14 12:01:46;;;;;;;;;;;26.20;99.90;;;;;;5061704;28;20011;-76
2022/04/14 12:04:13;;;;;;;;;;;25.60;99.90;;;;;;5050990;28;19929;-76
2022/04/14 12:06:49;;;;;;;;;;;25.40;99.90;;;;;;5051181;28;20145;-76
2022/04/14 12:09:20;;;;;;;;;;;25.10;99.90;;;;;;5070850;28;19924;-76
2022/04/14 12:11:46;;;;;;;;;;;25.30;99.90;;;;;;5069129;28;19931;-76
2022/04/14 12:14:14;;;;;;;;;;;25.00;99.90;;;;;;5063595;28;19925;-76
2022/04/14 12:16:47;;;;;;;;;;;24.50;99.90;;;;;;5052644;28;20387;-76
2022/04/14 12:19:14;;;;;;;;;;;23.70;99.90;;;;;;5059842;28;19939;-76
2022/04/14 12:21:41;;;;;;;;;;;23.20;99.90;;;;;;5060835;28;19924;-75
2022/04/14 12:24:08;;;;;;;;;;;22.70;99.90;;;;;;5067760;28;20048;-76
2022/04/14 12:26:37;;;;;;;;;;;22.20;99.90;;;;;;5066244;28;19970;-75
2022/04/14 12:29:08;;;;;;;;;;;21.80;99.90;;;;;;5066224;28;19925;-76
2022/04/14 12:31:35;;;;;;;;;;;21.50;99.90;;;;;;5063809;28;20409;-75
2022/04/14 12:34:01;;;;;;;;;;;21.50;99.90;;;;;;5065573;28;19935;-75
2022/04/14 12:36:48;;;;;;;;;;;21.70;99.90;;;;;;5062887;28;19939;-76
2022/04/14 12:39:20;;;;;;;;;;;22.10;99.90;;;;;;5061154;28;19925;-76
2022/04/14 12:41:47;;;;;;;;;;;23.10;99.90;;;;;;5064524;28;19924;-75
2022/04/14 12:44:18;;;;;;;;;;;23.60;99.90;;;;;;5065603;28;19925;-75
2022/04/14 12:46:46;;;;;;;;;;;23.90;99.90;;;;;;5067875;28;19955;-75
2022/04/14 12:49:22;;;;;;;;;;;24.70;99.90;;;;;;5062140;28;20019;-75
2022/04/14 12:51:55;;;;;;;;;;;24.70;99.90;;;;;;5060086;28;19943;-76
2022/04/14 12:54:23;;;;;;;;;;;24.90;99.90;;;;;;5061255;28;19971;-75
2022/04/14 12:56:56;;;;;;;;;;;25.00;99.90;;;;;;5062308;28;19957;-75
2022/04/14 12:59:25;;;;;;;;;;;24.90;99.90;;;;;;5061373;28;19928;-76
2022/04/14 13:01:52;;;;;;;;;;;25.00;99.90;;;;;;5063517;28;19924;-76
2022/04/14 13:04:20;;;;;;;;;;;25.70;99.90;;;;;;5065331;28;19943;-75
2022/04/14 13:07:16;;;;;;;;;;;25.80;99.90;;;;;;5058016;28;20011;-75
2022/04/14 13:09:58;;;;;;;;;;;25.50;99.90;;;;;;5052581;28;19942;-74
2022/04/14 13:12:44;;;;;;;;;;;24.90;99.90;;;;;;5066234;28;19947;-74
2022/04/14 13:15:14;;;;;;;;;;;24.80;99.90;;;;;;5061146;28;19925;-75
2022/04/14 13:17:42;;;;;;;;;;;24.10;99.90;;;;;;5061788;28;19968;-75
2022/04/14 13:20:09;;;;;;;;;;;24.10;99.90;;;;;;5060745;28;19930;-75
2022/04/14 13:22:35;;;;;;;;;;;24.30;99.90;;;;;;5063940;28;19928;-75
2022/04/14 13:25:03;;;;;;;;;;;24.50;99.90;;;;;;5065328;28;19924;-75
2022/04/14 13:27:30;;;;;;;;;;;24.80;99.90;;;;;;5061623;28;20434;-76
2022/04/14 13:29:57;;;;;;;;;;;24.80;99.90;;;;;;5062270;28;20412;-75
2022/04/14 13:32:23;;;;;;;;;;;24.70;99.90;;;;;;5067136;28;19932;-75
2022/04/14 13:34:54;;;;;;;;;;;24.70;99.90;;;;;;5065591;28;20395;-75
2022/04/14 13:37:21;;;;;;;;;;;24.60;99.90;;;;;;5056755;28;20364;-75
2022/04/14 13:39:48;;;;;;;;;;;24.40;99.90;;;;;;5066626;28;19931;-75
2022/04/14 13:42:17;;;;;;;;;;;24.40;99.90;;;;;;5060238;28;20036;-75
2022/04/14 13:44:43;;;;;;;;;;;24.60;99.90;;;;;;5061826;28;19924;-75
2022/04/14 13:47:10;;;;;;;;;;;24.60;99.90;;;;;;5064585;28;19932;-75
2022/04/14 13:49:37;;;;;;;;;;;24.40;99.90;;;;;;5064585;28;19935;-75
2022/04/14 13:52:04;;;;;;;;;;;24.30;99.90;;;;;;5061887;28;19935;-76
2022/04/14 13:54:31;;;;;;;;;;;24.10;99.90;;;;;;5066666;28;19928;-75
2022/04/14 13:56:57;;;;;;;;;;;24.00;99.90;;;;;;5058619;28;19924;-75
2022/04/14 13:59:24;;;;;;;;;;;23.80;99.90;;;;;;5090604;28;19940;-76
2022/04/14 14:01:51;;;;;;;;;;;23.40;99.90;;;;;;5057118;28;19928;-76
2022/04/14 14:04:17;;;;;;;;;;;23.30;99.90;;;;;;5061912;28;19936;-76
2022/04/14 14:06:44;;;;;;;;;;;22.90;99.90;;;;;;5062457;28;19924;-75
2022/04/14 14:09:11;;;;;;;;;;;22.70;99.90;;;;;;5061983;28;20014;-75
2022/04/14 14:11:37;;;;;;;;;;;22.60;99.90;;;;;;5065959;28;20170;-75
2022/04/14 14:14:07;;;;;;;;;;;22.50;99.90;;;;;;5067010;28;19948;-75
2022/04/14 14:16:34;;;;;;;;;;;22.30;99.90;;;;;;5066547;28;19930;-75
2022/04/14 14:19:06;;;;;;;;;;;22.00;99.90;;;;;;5066378;28;19990;-75
2022/04/14 14:21:34;;;;;;;;;;;21.70;99.90;;;;;;5099600;28;20406;-75
2022/04/14 14:24:03;;;;;;;;;;;21.20;99.90;;;;;;5063213;28;19958;-75
2022/04/14 14:26:30;;;;;;;;;;;20.80;99.90;;;;;;5065410;28;20116;-74
2022/04/14 14:28:56;;;;;;;;;;;20.50;99.90;;;;;;5061219;28;19925;-75